Time;durP1;ratioP1;P1;durP2;ratioP2;P2;SDS_P1;SDS_P2;PMS_P1;PMS_P2;Temp;Humidity;BMP_temperature;BMP_pressure;BME280_temperature;BME280_humidity;BME280_pressure;Samples;Min_cycle;Max_cycle;Signal;HPM_P1;HPM_P2
2022/05/01 00:02:50;;;;;;;28.77;16.37;;;;;;;6.89;57.20;100819.93;2091625;84;33868;-57
2022/05/01 00:05:52;;;;;;;27.45;17.15;;;;;;;6.91;57.24;100815.91;2091715;84;30955;-58
2022/05/01 00:08:54;;;;;;;26.35;15.15;;;;;;;6.90;57.29;100812.84;2091764;84;27795;-58
2022/05/01 00:11:59;;;;;;;28.50;15.35;;;;;;;6.91;57.19;100815.44;2091707;85;29959;-57
2022/05/01 00:15:03;;;;;;;26.17;14.90;;;;;;;6.90;57.31;100811.50;2092050;85;30834;-61
2022/05/01 00:18:06;;;;;;;27.27;15.63;;;;;;;6.89;57.18;100813.75;2092231;85;33079;-58
2022/05/01 00:21:10;;;;;;;26.12;15.28;;;;;;;6.88;57.41;100815.52;2092025;84;30471;-58
2022/05/01 00:24:12;;;;;;;27.37;15.60;;;;;;;6.86;57.29;100809.83;2091890;84;27704;-58
2022/05/01 00:27:14;;;;;;;25.90;14.53;;;;;;;6.84;57.42;100813.40;2091834;85;29404;-58
2022/05/01 00:30:16;;;;;;;36.73;14.70;;;;;;;6.83;57.25;100810.31;2091664;84;31933;-58
2022/05/01 00:36:40;;;;;;;29.82;14.90;;;;;;;6.80;57.31;100807.73;2091767;84;30858;-58
2022/05/01 00:39:42;;;;;;;29.80;15.85;;;;;;;6.80;57.57;100801.55;2092157;84;27576;-58
2022/05/01 00:42:44;;;;;;;25.82;14.28;;;;;;;6.79;57.51;100803.31;2091776;84;29909;-59
2022/05/01 00:45:46;;;;;;;29.52;15.75;;;;;;;6.77;57.58;100800.28;2092071;84;32194;-58
2022/05/01 00:48:48;;;;;;;34.40;15.75;;;;;;;6.74;57.81;100797.25;2091749;85;33840;-58
2022/05/01 00:52:08;;;;;;;26.62;14.30;;;;;;;6.71;57.94;100796.00;2091991;85;28789;-58
2022/05/01 00:55:11;;;;;;;27.90;14.47;;;;;;;6.68;57.96;100795.63;2118076;83;27740;-58
2022/05/01 00:58:13;;;;;;;27.40;14.68;;;;;;;6.66;58.01;100799.22;2092584;85;29340;-58
2022/05/01 01:01:15;;;;;;;23.38;14.53;;;;;;;6.61;58.05;100798.02;2092174;84;31904;-58
2022/05/01 01:04:18;;;;;;;22.00;13.88;;;;;;;6.59;58.32;100805.63;2091936;85;33419;-58
2022/05/01 01:07:20;;;;;;;29.48;14.63;;;;;;;6.56;58.26;100803.90;2092226;85;29627;-60
2022/05/01 01:10:22;;;;;;;26.23;15.35;;;;;;;6.52;58.59;100806.24;2091990;84;27773;-58
2022/05/01 01:13:29;;;;;;;24.30;14.55;;;;;;;6.48;58.60;100808.55;2091801;84;30072;-59
2022/05/01 01:16:32;;;;;;;25.40;14.90;;;;;;;6.45;58.91;100806.85;2091862;84;31091;-58
2022/05/01 01:19:33;;;;;;;28.47;15.15;;;;;;;6.42;58.87;100804.70;2092156;84;34157;-58
2022/05/01 01:22:36;;;;;;;25.48;15.15;;;;;;;6.38;58.97;100806.57;2092200;84;30767;-58
2022/05/01 01:25:38;;;;;;;30.57;15.15;;;;;;;6.34;59.01;100807.11;2092508;85;28224;-58
2022/05/01 01:28:41;;;;;;;29.85;16.17;;;;;;;6.32;59.16;100811.59;2092297;84;29029;-58
2022/05/01 01:31:44;;;;;;;27.65;16.45;;;;;;;6.30;59.26;100808.52;2092250;84;30864;-59
2022/05/01 01:34:46;;;;;;;27.77;17.77;;;;;;;6.28;59.29;100811.70;2092227;84;33142;-58
2022/05/01 01:37:49;;;;;;;27.13;16.40;;;;;;;6.25;59.22;100801.98;2091841;84;30494;-59
2022/05/01 01:40:54;;;;;;;28.55;16.75;;;;;;;6.23;59.70;100806.02;2092041;85;27648;-58
2022/05/01 01:43:58;;;;;;;31.15;18.52;;;;;;;6.20;59.63;100800.77;2092315;85;27869;-58
2022/05/01 01:46:59;;;;;;;34.95;19.50;;;;;;;6.21;59.82;100800.30;2092147;84;31036;-61
2022/05/01 01:50:01;;;;;;;39.50;20.57;;;;;;;6.22;59.77;100799.39;2092265;85;34110;-58
2022/05/01 01:53:04;;;;;;;35.98;19.23;;;;;;;6.23;59.86;100798.05;2091871;84;30816;-60
2022/05/01 01:56:09;;;;;;;37.23;20.50;;;;;;;6.22;59.81;100800.72;2092238;84;27642;-58
2022/05/01 01:59:11;;;;;;;39.00;21.12;;;;;;;6.20;59.99;100797.25;2072636;85;29565;-60
2022/05/01 02:02:13;;;;;;;34.33;20.55;;;;;;;6.18;60.06;100799.06;2092481;84;31966;-58
2022/05/01 02:05:14;;;;;;;37.17;21.70;;;;;;;6.15;60.07;100796.00;2092261;84;33341;-58
2022/05/01 02:08:16;;;;;;;37.03;20.48;;;;;;;6.12;60.07;100792.55;2092260;84;30067;-58
2022/05/01 02:11:18;;;;;;;34.43;19.80;;;;;;;6.09;60.10;100792.17;2092234;84;27653;-58
2022/05/01 02:14:20;;;;;;;31.25;17.45;;;;;;;6.07;60.08;100793.99;2092193;84;29083;-63
2022/05/01 02:17:22;;;;;;;26.55;16.20;;;;;;;6.06;60.05;100790.44;2121100;79;30894;-63
2022/05/01 02:20:24;;;;;;;28.30;17.23;;;;;;;6.03;59.98;100791.87;2108286;84;32919;-63
2022/05/01 02:23:26;;;;;;;29.12;16.37;;;;;;;6.01;60.00;100792.35;2108584;84;29092;-68
2022/05/01 02:26:29;;;;;;;27.73;16.70;;;;;;;5.99;60.16;100787.92;2108622;84;27811;-63
2022/05/01 02:29:31;;;;;;;27.62;15.78;;;;;;;5.95;60.17;100786.27;2108599;84;28637;-62
2022/05/01 02:32:32;;;;;;;27.32;17.10;;;;;;;5.90;60.32;100795.22;2108316;84;31653;-64
2022/05/01 02:35:35;;;;;;;30.40;17.65;;;;;;;5.85;60.37;100794.91;2086480;84;33292;-59
2022/05/01 02:38:37;;;;;;;32.05;17.17;;;;;;;5.78;60.49;100793.70;2108054;84;30955;-57
2022/05/01 02:41:39;;;;;;;30.12;18.17;;;;;;;5.72;60.46;100796.94;2108256;84;27604;-58
2022/05/01 02:44:41;;;;;;;29.67;16.73;;;;;;;5.66;60.58;100794.41;2108445;84;28855;-58
2022/05/01 02:47:42;;;;;;;29.72;16.73;;;;;;;5.59;60.55;100791.89;2108507;84;31862;-57
2022/05/01 02:50:45;;;;;;;30.20;16.57;;;;;;;5.54;60.82;100795.56;2108316;84;34116;-57
2022/05/01 02:53:47;;;;;;;31.55;16.57;;;;;;;5.48;60.94;100788.56;2108027;84;30996;-58
2022/05/01 02:56:49;;;;;;;30.32;16.70;;;;;;;5.42;60.92;100788.24;2108047;84;28189;-60
2022/05/01 02:59:51;;;;;;;32.17;17.30;;;;;;;5.37;60.93;100783.50;2107975;84;29519;-57
2022/05/01 03:02:55;;;;;;;28.45;16.15;;;;;;;5.32;61.04;100783.56;2108297;84;32221;-60
2022/05/01 03:05:58;;;;;;;31.15;17.98;;;;;;;5.28;61.16;100783.66;2123787;83;32970;-58
2022/05/01 03:09:01;;;;;;;28.27;16.25;;;;;;;5.23;61.24;100781.55;2123685;82;29621;-58
2022/05/01 03:12:03;;;;;;;31.93;17.85;;;;;;;5.20;61.52;100780.30;2123898;83;27677;-59
2022/05/01 03:15:09;;;;;;;30.88;17.37;;;;;;;5.14;61.75;100777.28;2123668;83;29020;-58
2022/05/01 03:24:52;;;;;;;26.62;16.15;;;;;;;5.04;61.86;100784.58;2123619;83;30665;-58
2022/05/01 03:27:54;;;;;;;30.77;16.52;;;;;;;5.02;61.86;100782.41;2123826;83;27682;-58
2022/05/01 03:30:59;;;;;;;31.25;16.23;;;;;;;5.00;62.01;100780.23;2123333;83;29911;-59
2022/05/01 03:34:03;;;;;;;25.92;16.17;;;;;;;4.98;62.14;100784.69;2124050;83;31727;-59
2022/05/01 03:37:09;;;;;;;26.97;15.80;;;;;;;4.95;62.40;100785.63;2123569;83;33164;-58
2022/05/01 03:40:14;;;;;;;29.57;17.67;;;;;;;4.94;62.28;100785.64;2123698;83;29635;-58
2022/05/01 03:43:17;;;;;;;28.40;16.27;;;;;;;4.94;62.34;100782.98;2124329;83;27609;-58
2022/05/01 03:46:23;;;;;;;28.57;16.80;;;;;;;4.94;62.43;100783.88;2124219;83;29503;-59
2022/05/01 03:49:26;;;;;;;27.45;16.37;;;;;;;4.95;62.60;100782.97;2123853;83;31016;-59
2022/05/01 03:52:27;;;;;;;32.08;18.77;;;;;;;4.98;62.66;100784.69;2123589;83;33357;-58
2022/05/01 03:55:30;;;;;;;32.73;18.73;;;;;;;5.01;62.77;100779.33;2123622;83;30606;-61
2022/05/01 03:58:33;;;;;;;34.85;20.37;;;;;;;5.06;62.82;100782.74;2123891;83;27698;-58
2022/05/01 04:01:34;;;;;;;31.25;18.40;;;;;;;5.13;62.94;100786.19;2124320;83;28656;-62
2022/05/01 04:04:37;;;;;;;34.10;19.40;;;;;;;5.22;62.93;100789.09;2123327;83;32350;-60
2022/05/01 04:07:40;;;;;;;30.43;18.15;;;;;;;5.32;62.85;100785.36;2123608;83;34340;-58
2022/05/01 04:10:44;;;;;;;32.98;18.70;;;;;;;5.43;62.77;100786.01;2123632;83;29687;-60
2022/05/01 04:13:46;;;;;;;33.75;19.23;;;;;;;5.58;62.63;100791.91;2123857;83;27627;-60
2022/05/01 04:16:50;;;;;;;29.15;19.07;;;;;;;5.72;62.55;100791.16;2123296;83;29189;-58
2022/05/01 04:19:52;;;;;;;26.33;16.75;;;;;;;5.84;62.56;100793.15;2123640;83;31900;-60
2022/05/01 04:22:53;;;;;;;30.80;17.25;;;;;;;5.97;62.53;100790.63;2124085;83;33509;-71
2022/05/01 04:25:55;;;;;;;31.87;18.25;;;;;;;6.10;62.53;100796.59;2123547;83;29648;-65
2022/05/01 04:32:21;;;;;;;27.55;16.50;;;;;;;6.39;62.71;100797.20;2123473;83;29123;-62
2022/05/01 04:35:32;;;;;;;28.45;16.70;;;;;;;6.56;62.00;100799.05;2123313;83;32148;-65
2022/05/01 04:38:34;;;;;;;27.62;16.52;;;;;;;6.75;61.74;100796.34;2123620;83;34129;-60
2022/05/01 04:41:36;;;;;;;23.90;14.85;;;;;;;6.95;61.53;100794.95;2123336;83;30960;-60
2022/05/01 04:44:39;;;;;;;24.77;15.98;;;;;;;7.17;61.09;100793.02;2121611;83;27582;-61
2022/05/01 04:47:41;;;;;;;28.47;15.58;;;;;;;7.37;60.88;100792.45;2123615;83;28455;-59
2022/05/01 04:50:44;;;;;;;29.77;15.10;;;;;;;7.63;60.61;100796.17;2123682;83;31414;-59
2022/05/01 04:53:47;;;;;;;21.75;14.47;;;;;;;8.00;60.59;100795.92;2123491;83;33057;-60
2022/05/01 04:57:09;;;;;;;22.77;14.45;;;;;;;8.59;60.45;100791.88;2123863;83;30523;-64
2022/05/01 05:00:24;;;;;;;21.02;13.48;;;;;;;9.34;60.37;100787.50;2123766;83;27672;-59
2022/05/01 05:03:23;;;;;;;29.30;12.85;;;;;;;10.04;59.67;100789.28;2122311;83;30035;-60
2022/05/01 05:06:25;;;;;;;22.35;13.62;;;;;;;10.70;58.48;100786.22;2123491;83;31715;-59
2022/05/01 05:12:50;;;;;;;21.93;11.83;;;;;;;11.77;56.44;100774.78;2123974;83;30694;-58
2022/05/01 05:15:58;;;;;;;22.62;11.60;;;;;;;12.26;54.96;100771.56;2123505;83;27676;-58
2022/05/01 05:18:57;;;;;;;12.07;8.95;;;;;;;12.74;54.91;100773.71;2141594;82;28812;-60
2022/05/01 05:21:58;;;;;;;18.75;11.20;;;;;;;13.10;53.63;100774.56;2135736;83;31455;-59
2022/05/01 05:25:00;;;;;;;18.12;11.38;;;;;;;13.25;52.80;100776.44;2135474;83;33327;-58
2022/05/01 05:28:07;;;;;;;19.25;11.90;;;;;;;13.44;52.32;100780.38;2135212;83;30840;-58
2022/05/01 05:31:07;;;;;;;23.25;12.55;;;;;;;13.67;51.87;100784.50;2134918;83;27751;-59
2022/05/01 05:34:09;;;;;;;19.82;12.40;;;;;;;13.93;51.67;100786.24;2135773;83;28643;-65
2022/05/01 05:37:11;;;;;;;20.55;12.05;;;;;;;14.19;50.72;100788.42;2135579;83;31201;-59
2022/05/01 05:40:12;;;;;;;18.42;10.55;;;;;;;14.53;51.03;100792.72;2135400;83;33342;-57
2022/05/01 05:43:14;;;;;;;16.62;11.85;;;;;;;14.84;49.94;100796.83;2135647;83;30763;-59
2022/05/01 05:46:17;;;;;;;16.67;10.63;;;;;;;15.12;49.96;100798.73;2135816;83;27587;-58
2022/05/01 05:49:19;;;;;;;17.77;11.55;;;;;;;15.40;49.38;100802.43;2135187;83;29538;-59
2022/05/01 05:52:21;;;;;;;16.12;10.18;;;;;;;15.73;48.95;100796.34;2135251;83;31490;-58
2022/05/01 05:55:24;;;;;;;21.77;10.80;;;;;;;16.04;48.05;100792.58;2135120;83;34250;-59
2022/05/01 05:58:26;;;;;;;15.83;10.05;;;;;;;16.24;47.38;100798.53;2135498;83;29664;-58
2022/05/01 06:01:28;;;;;;;15.63;10.55;;;;;;;16.53;46.61;100787.14;2135333;83;27767;-59
2022/05/01 06:04:31;;;;;;;14.20;9.80;;;;;;;17.08;45.59;100789.77;2135176;83;29889;-59
2022/05/01 06:07:33;;;;;;;16.07;10.35;;;;;;;17.08;45.59;100789.77;2135098;83;31894;-59
2022/05/01 06:10:35;;;;;;;13.38;9.45;;;;;;;17.28;45.18;100796.53;2135545;83;33364;-59
2022/05/01 06:13:37;;;;;;;15.23;10.95;;;;;;;17.61;45.29;100795.59;2135197;83;30874;-59
2022/05/01 06:16:39;;;;;;;15.80;10.75;;;;;;;17.95;44.50;100797.72;2135200;83;27585;-59
2022/05/01 06:19:41;;;;;;;19.75;10.08;;;;;;;18.35;43.95;100805.17;2135240;83;29405;-59
2022/05/01 06:22:43;;;;;;;15.05;9.85;;;;;;;18.81;43.30;100801.31;2135125;83;31998;-60
2022/05/01 06:25:46;;;;;;;13.10;9.95;;;;;;;19.05;42.19;100804.02;2135118;83;34194;-61
2022/05/01 06:28:48;;;;;;;12.45;8.63;;;;;;;19.43;42.68;100797.91;2135500;83;29704;-59
2022/05/01 06:31:52;;;;;;;12.75;8.58;;;;;;;19.89;40.25;100792.03;2135190;83;27686;-60
2022/05/01 06:34:54;;;;;;;11.08;7.95;;;;;;;20.32;40.39;100792.56;2135397;83;29743;-59
2022/05/01 06:37:58;;;;;;;12.73;8.73;;;;;;;20.84;39.64;100797.38;2135068;83;32031;-60
2022/05/01 06:41:06;;;;;;;13.77;9.30;;;;;;;21.21;38.89;100793.32;2135671;83;32998;-58
2022/05/01 06:44:17;;;;;;;13.15;8.83;;;;;;;21.52;38.07;100799.69;2135289;83;28206;-64
2022/05/01 06:47:35;;;;;;;17.17;9.33;;;;;;;21.62;37.95;100797.53;2133865;83;27692;-59
2022/05/01 06:50:39;;;;;;;14.00;9.68;;;;;;;21.96;38.04;100796.75;2135140;83;29904;-60
2022/05/01 06:53:43;;;;;;;12.23;8.15;;;;;;;22.24;36.21;100801.06;2135253;83;31490;-59
2022/05/01 06:56:45;;;;;;;12.13;8.10;;;;;;;22.58;36.36;100797.14;2135174;83;33667;-59
2022/05/01 06:59:48;;;;;;;14.23;9.30;;;;;;;22.84;35.44;100803.37;2135482;83;29614;-59
2022/05/01 07:02:53;;;;;;;14.38;8.88;;;;;;;23.01;34.68;100803.14;2135468;83;27677;-59
2022/05/01 07:05:55;;;;;;;12.73;8.33;;;;;;;23.11;34.79;100807.23;2135405;83;29470;-59
2022/05/01 07:08:57;;;;;;;13.40;9.70;;;;;;;23.16;34.35;100809.03;2135065;83;31077;-60
2022/05/01 07:12:00;;;;;;;14.28;8.55;;;;;;;23.06;33.87;100809.05;2135129;83;34175;-59
2022/05/01 07:15:04;;;;;;;11.93;9.58;;;;;;;22.82;33.60;100806.27;2135069;83;30862;-59
2022/05/01 07:18:07;;;;;;;13.67;9.60;;;;;;;22.46;33.33;100802.70;2135479;83;27797;-58
2022/05/01 07:21:10;;;;;;;15.30;10.50;;;;;;;22.17;33.22;100795.81;2135371;83;28719;-60
2022/05/01 07:24:12;;;;;;;14.25;9.70;;;;;;;22.12;33.42;100795.36;2135399;83;31317;-59
2022/05/01 07:27:14;;;;;;;14.70;9.55;;;;;;;21.96;33.53;100795.39;2135064;83;34166;-60
2022/05/01 07:30:18;;;;;;;11.93;8.80;;;;;;;21.63;31.92;100793.80;2135529;83;29669;-58
2022/05/01 07:33:23;;;;;;;16.97;10.88;;;;;;;21.46;33.44;100792.03;2134141;83;27642;-58
2022/05/01 07:36:25;;;;;;;16.77;9.95;;;;;;;21.77;33.76;100789.86;2135522;83;28653;-59
2022/05/01 07:39:27;;;;;;;15.78;10.20;;;;;;;22.08;33.31;100793.42;2135191;83;31851;-58
2022/05/01 07:42:30;;;;;;;14.95;9.58;;;;;;;22.31;33.34;100787.22;2135390;83;33942;-58
2022/05/01 07:45:32;;;;;;;16.87;10.08;;;;;;;22.40;32.74;100788.73;2135449;83;30592;-59
2022/05/01 07:48:34;;;;;;;14.90;9.80;;;;;;;22.33;32.45;100791.68;2135419;83;27971;-59
2022/05/01 07:51:37;;;;;;;16.25;10.15;;;;;;;22.33;32.42;100790.31;2135164;83;30049;-59
2022/05/01 07:54:41;;;;;;;18.15;9.98;;;;;;;22.13;31.96;100792.48;2135426;83;32153;-58
2022/05/01 07:57:45;;;;;;;16.57;10.48;;;;;;;21.90;32.84;100788.27;2135455;83;33015;-58
2022/05/01 08:00:47;;;;;;;;;;;;;;;21.87;32.86;100792.11;2138042;83;30505;-58
2022/05/01 08:07:10;;;;;;;17.07;9.90;;;;;;;21.62;31.67;100788.86;2135694;83;29335;-58
2022/05/01 08:10:13;;;;;;;12.05;9.15;;;;;;;21.58;32.21;100785.16;2135225;83;32258;-58
2022/05/01 08:13:15;;;;;;;16.95;10.32;;;;;;;21.69;33.05;100785.09;2135028;83;35155;-58
2022/05/01 08:16:17;;;;;;;14.98;10.53;;;;;;;22.07;33.23;100781.27;2135417;83;30969;-59
2022/05/01 08:22:51;;;;;;;14.43;9.73;;;;;;;22.56;32.63;100772.68;2135127;83;30248;-61
2022/05/01 08:25:53;;;;;;;12.47;9.28;;;;;;;22.96;32.27;100768.58;2135277;83;31908;-69
2022/05/01 08:28:56;;;;;;;14.45;9.75;;;;;;;23.24;32.10;100766.84;2135219;83;34427;-60
2022/05/01 08:32:00;;;;;;;15.80;9.48;;;;;;;23.48;31.70;100765.46;2135251;83;30661;-59
2022/05/01 08:35:04;;;;;;;11.95;9.80;;;;;;;23.63;31.16;100762.59;2097017;84;28472;-60
2022/05/01 08:38:08;;;;;;;14.63;9.25;;;;;;;23.65;31.38;100764.67;2096772;84;29425;-60
2022/05/01 08:41:10;;;;;;;14.53;8.70;;;;;;;23.85;30.92;100750.91;2096991;84;32213;-59
2022/05/01 08:44:16;;;;;;;13.85;9.75;;;;;;;23.87;30.85;100757.58;2096676;84;33252;-60
2022/05/01 08:47:29;;;;;;;11.60;9.18;;;;;;;23.99;31.01;100754.17;2096789;84;29734;-59
2022/05/01 08:50:36;;;;;;;12.58;8.68;;;;;;;24.15;31.32;100749.41;2096777;84;27661;-63
2022/05/01 08:53:38;;;;;;;13.50;8.53;;;;;;;24.21;30.63;100752.88;2096893;84;28722;-60
2022/05/01 08:56:43;;;;;;;14.70;8.73;;;;;;;24.12;30.91;100750.06;2096705;84;32304;-60
2022/05/01 08:59:46;;;;;;;12.53;8.03;;;;;;;24.19;30.43;100750.30;2096682;84;33845;-58
2022/05/01 09:02:48;;;;;;;14.65;9.08;;;;;;;24.08;28.66;100749.13;2096717;84;30006;-61
2022/05/01 09:05:51;;;;;;;11.97;9.38;;;;;;;23.77;29.54;100746.69;2116317;83;27764;-64
2022/05/01 09:08:53;;;;;;;12.73;9.48;;;;;;;23.55;29.42;100750.19;2135634;83;29561;-59
2022/05/01 09:15:40;;;;;;;12.30;8.75;;;;;;;23.14;29.70;100742.72;2135328;83;34165;-60
2022/05/01 09:18:44;;;;;;;13.13;8.40;;;;;;;23.01;29.52;100748.48;2135316;83;29791;-59
2022/05/01 09:21:51;;;;;;;14.95;10.53;;;;;;;22.89;29.63;100742.34;2135536;83;27618;-59
2022/05/01 09:24:53;;;;;;;15.28;8.25;;;;;;;22.88;29.57;100745.56;2135569;83;28081;-59
2022/05/01 09:27:59;;;;;;;14.65;7.92;;;;;;;22.87;29.61;100741.11;2135223;83;32270;-58
2022/05/01 09:31:02;;;;;;;11.40;7.87;;;;;;;22.88;29.95;100734.64;2135857;83;32942;-58
2022/05/01 09:34:21;;;;;;;9.33;7.40;;;;;;;22.97;29.06;100736.16;2135532;83;30011;-58
2022/05/01 09:37:23;;;;;;;10.25;6.87;;;;;;;22.91;28.96;100733.50;2135575;83;27686;-57
2022/05/01 09:40:31;;;;;;;11.12;6.83;;;;;;;22.96;28.71;100733.91;2135199;83;29557;-58
2022/05/01 09:43:44;;;;;;;8.58;6.70;;;;;;;22.79;27.67;100727.82;2135484;83;31865;-58
2022/05/01 09:46:49;;;;;;;8.83;5.85;;;;;;;22.41;27.54;100731.28;2135212;83;34170;-60
2022/05/01 09:49:52;;;;;;;9.50;6.50;;;;;;;22.03;27.66;100726.61;2135100;83;29697;-63
2022/05/01 09:52:57;;;;;;;14.60;6.37;;;;;;;21.84;27.77;100716.04;2135840;83;27713;-67
2022/05/01 09:56:01;;;;;;;7.17;6.10;;;;;;;21.74;27.50;100712.41;2135653;83;29547;-70
2022/05/01 09:59:03;;;;;;;8.50;6.47;;;;;;;21.53;27.77;100718.75;2135680;83;31161;-58
2022/05/01 10:02:07;;;;;;;8.03;6.25;;;;;;;21.38;28.34;100716.39;2135814;83;33370;-63
2022/05/01 10:05:10;;;;;;;7.30;5.87;;;;;;;21.25;28.51;100710.31;2135655;83;29635;-62
2022/05/01 10:08:14;;;;;;;9.33;6.40;;;;;;;21.21;28.67;100707.01;2110826;83;27701;-60
2022/05/01 10:11:17;;;;;;;9.73;6.73;;;;;;;21.15;28.77;100710.27;2135769;83;29472;-60
2022/05/01 10:14:23;;;;;;;7.13;5.93;;;;;;;21.12;29.19;100710.53;2135735;83;31865;-59
2022/05/01 10:17:25;;;;;;;10.08;6.35;;;;;;;21.15;29.04;100704.81;2135421;83;32997;-62
2022/05/01 10:20:27;;;;;;;10.45;6.60;;;;;;;21.29;29.25;100707.69;2135094;83;30924;-59
2022/05/01 10:23:31;;;;;;;8.15;6.25;;;;;;;21.24;28.51;100701.77;2135367;83;27766;-60
2022/05/01 10:26:37;;;;;;;9.88;6.62;;;;;;;21.14;29.02;100703.60;2135589;83;28727;-68
2022/05/01 10:33:55;;;;;;;10.58;6.92;;;;;;;21.13;28.49;100697.78;2115923;84;34207;-59
2022/05/01 10:37:08;;;;;;;11.35;6.72;;;;;;;21.00;28.60;100689.82;2116293;84;29719;-60
2022/05/01 10:40:11;;;;;;;8.63;6.12;;;;;;;20.93;29.03;100690.34;2116410;84;27691;-63
2022/05/01 10:43:33;;;;;;;8.95;6.00;;;;;;;20.91;28.68;100686.04;2116119;84;29129;-58
2022/05/01 10:46:35;;;;;;;10.68;7.20;;;;;;;20.82;28.35;100682.77;2116350;84;30876;-63
2022/05/01 10:49:41;;;;;;;10.72;7.30;;;;;;;20.78;28.89;100683.52;2115963;84;34191;-58
2022/05/01 10:53:11;;;;;;;8.50;6.05;;;;;;;20.77;28.77;100679.06;2115711;84;29714;-59
2022/05/01 10:56:27;;;;;;;8.60;6.75;;;;;;;20.73;28.71;100672.15;2115879;84;27744;-64
2022/05/01 10:59:36;;;;;;;47.33;34.30;;;;;;;20.81;29.23;100672.36;2116281;84;27917;-58
2022/05/01 11:02:48;;;;;;;12.98;7.92;;;;;;;20.88;29.35;100670.84;2115756;84;32357;-59
2022/05/01 11:05:55;;;;;;;11.57;6.95;;;;;;;20.96;29.37;100667.45;2116344;84;32996;-59
2022/05/01 11:08:56;;;;;;;9.48;6.15;;;;;;;20.89;28.79;100667.13;2127418;83;30459;-58
2022/05/01 11:11:59;;;;;;;9.23;6.05;;;;;;;20.93;29.03;100656.81;2135731;83;27638;-58
2022/05/01 11:15:09;;;;;;;9.25;5.72;;;;;;;20.90;28.64;100657.95;2135449;83;28675;-65
2022/05/01 11:18:12;;;;;;;9.80;6.62;;;;;;;20.86;28.92;100656.49;2135274;83;31833;-59
2022/05/01 11:21:27;;;;;;;10.75;6.45;;;;;;;20.87;28.96;100660.06;2135654;83;33065;-62
2022/05/01 11:24:45;;;;;;;6.60;5.28;;;;;;;20.82;28.84;100655.54;2135564;83;34784;-58
2022/05/01 11:27:50;;;;;;;11.95;7.60;;;;;;;20.70;28.58;100658.28;2135122;83;27665;-62
2022/05/01 11:30:53;;;;;;;13.55;7.50;;;;;;;20.60;29.10;100661.45;2134956;83;28784;-66
2022/05/01 11:34:21;;;;;;;10.60;6.92;;;;;;;20.54;29.14;100656.05;2135333;83;31286;-58
2022/05/01 11:37:24;;;;;;;9.33;6.08;;;;;;;20.55;29.61;100652.33;2135412;83;32968;-61
2022/05/01 11:40:30;;;;;;;8.03;6.35;;;;;;;20.65;30.14;100650.52;2134627;83;27847;-64
2022/05/01 11:43:35;;;;;;;8.38;5.45;;;;;;;20.77;29.85;100647.27;2135879;83;33462;-77
2022/05/01 11:46:37;;;;;;;;;;;;;;;20.85;30.00;100647.11;2138155;83;28702;-71
2022/05/01 11:49:42;;;;;;;8.50;4.95;;;;;;;21.01;29.92;100646.12;2135578;83;31253;-65
2022/05/01 11:52:49;;;;;;;7.28;5.30;;;;;;;21.16;29.79;100638.42;2135180;83;34317;-75
2022/05/01 12:02:37;;;;;;;10.78;6.30;;;;;;;21.45;28.67;100635.45;2135344;83;29582;-69
2022/05/01 12:05:49;;;;;;;6.42;5.42;;;;;;;21.34;28.71;100629.12;2135494;83;31416;-69
2022/05/01 12:08:52;;;;;;;7.08;5.67;;;;;;;21.19;29.00;100627.26;2135072;83;34195;-59
2022/05/01 12:11:54;;;;;;;12.45;5.72;;;;;;;21.07;28.99;100625.12;2135506;83;30565;-65
2022/05/01 12:15:03;;;;;;;9.83;5.20;;;;;;;20.99;29.03;100624.96;2135476;83;27642;-68
2022/05/01 12:18:07;;;;;;;7.37;4.65;;;;;;;20.91;29.08;100624.76;2134748;83;30002;-73
2022/05/01 12:21:09;;;;;;;10.00;5.75;;;;;;;20.83;29.09;100621.87;2135076;83;31016;-63
2022/05/01 12:24:15;;;;;;;8.03;6.05;;;;;;;20.81;28.84;100624.70;2135590;83;34089;-67
2022/05/01 12:27:18;;;;;;;9.25;5.35;;;;;;;20.76;29.20;100610.14;2135261;83;30203;-68
2022/05/01 12:30:26;;;;;;;11.53;8.05;;;;;;;20.82;29.01;100616.05;2135471;83;27669;-70
2022/05/01 12:33:27;;;;;;;10.75;6.85;;;;;;;20.80;29.06;100606.64;2135205;83;29466;-65
2022/05/01 12:36:31;;;;;;;8.73;5.80;;;;;;;20.89;29.08;100610.41;2135090;83;32272;-67
2022/05/01 12:39:34;;;;;;;10.03;6.30;;;;;;;21.01;29.12;100612.07;2135008;83;33995;-60
2022/05/01 12:46:29;;;;;;;8.70;5.50;;;;;;;21.04;29.06;100606.33;2135482;83;27761;-58
2022/05/01 12:49:31;;;;;;;8.10;5.50;;;;;;;21.10;29.44;100599.45;2135272;83;28668;-59
2022/05/01 12:52:36;;;;;;;8.50;6.33;;;;;;;21.16;29.79;100599.44;2134839;83;32418;-58
2022/05/01 12:55:39;;;;;;;8.83;5.53;;;;;;;21.20;30.06;100599.50;2134497;83;33779;-58
2022/05/01 12:58:41;;;;;;;7.37;5.40;;;;;;;21.28;29.46;100601.05;2135302;83;29636;-58
2022/05/01 13:01:44;;;;;;;9.83;5.50;;;;;;;21.27;29.04;100599.80;2135463;83;27584;-58
2022/05/01 13:04:57;;;;;;;9.05;5.72;;;;;;;21.19;28.91;100591.84;2135033;83;29518;-58
2022/05/01 13:07:59;;;;;;;11.20;5.53;;;;;;;21.23;28.96;100589.69;2135088;83;32326;-59
2022/05/01 13:11:30;;;;;;;6.92;5.20;;;;;;;21.21;28.85;100588.48;2135143;83;34191;-63
2022/05/01 13:14:33;;;;;;;7.12;5.37;;;;;;;21.12;28.81;100584.36;2116005;84;30810;-58
2022/05/01 13:17:36;;;;;;;10.28;5.03;;;;;;;21.05;28.98;100579.45;2116553;84;28187;-58
2022/05/01 13:20:39;;;;;;;11.25;6.53;;;;;;;21.01;28.95;100578.50;2116506;84;28700;-58
2022/05/01 13:23:42;;;;;;;6.67;5.40;;;;;;;20.98;29.06;100573.33;2117021;84;31072;-58
2022/05/01 13:26:44;;;;;;;10.48;6.62;;;;;;;20.86;29.00;100563.91;2117166;84;33901;-58
2022/05/01 13:29:47;;;;;;;10.05;6.30;;;;;;;20.85;29.12;100562.69;2116686;84;30496;-59
2022/05/01 13:32:49;;;;;;;7.72;5.87;;;;;;;20.85;29.25;100567.62;2117028;84;27740;-58
2022/05/01 13:35:51;;;;;;;8.43;5.08;;;;;;;20.80;29.01;100568.52;2116668;84;29936;-59
2022/05/01 13:38:53;;;;;;;7.53;5.42;;;;;;;20.75;29.18;100565.34;2117011;84;31986;-58
2022/05/01 13:45:16;;;;;;;9.65;6.33;;;;;;;20.73;29.03;100557.80;2116737;84;30608;-59
2022/05/01 13:48:18;;;;;;;7.83;5.00;;;;;;;20.73;28.90;100555.08;2116751;84;27796;-58
2022/05/01 13:51:21;;;;;;;6.50;4.95;;;;;;;20.70;29.03;100552.10;2128057;83;29083;-59
2022/05/01 13:54:24;;;;;;;7.20;5.97;;;;;;;20.68;29.33;100550.05;2132812;83;32332;-61
2022/05/01 13:57:27;;;;;;;9.05;5.62;;;;;;;20.64;28.89;100543.98;2101766;84;34155;-58
2022/05/01 14:00:29;;;;;;;7.05;5.30;;;;;;;20.57;28.71;100541.46;2158462;82;30446;-58
2022/05/01 14:03:32;;;;;;;8.23;6.03;;;;;;;20.52;28.76;100536.06;2101589;84;27715;-58
2022/05/01 14:06:34;;;;;;;11.03;5.37;;;;;;;20.45;28.90;100538.44;2158541;82;28809;-59
2022/05/01 14:09:36;;;;;;;6.85;5.33;;;;;;;20.43;29.07;100531.78;2101824;84;31043;-62
2022/05/01 14:12:38;;;;;;;7.42;4.78;;;;;;;20.44;29.20;100525.82;2158473;82;33780;-59
2022/05/01 14:15:41;;;;;;;10.32;5.60;;;;;;;20.47;29.15;100528.28;2101464;84;30485;-59
2022/05/01 14:18:46;;;;;;;8.85;5.33;;;;;;;20.51;29.28;100523.45;2158445;82;27674;-58
2022/05/01 14:21:49;;;;;;;9.58;5.30;;;;;;;20.52;29.30;100519.22;2088212;84;29918;-58
2022/05/01 14:24:52;;;;;;;5.65;4.78;;;;;;;20.54;29.55;100520.43;2086175;85;31972;-58
2022/05/01 14:27:54;;;;;;;9.75;5.83;;;;;;;20.55;29.73;100516.23;2086361;85;33769;-58
2022/05/01 14:31:35;;;;;;;7.92;5.08;;;;;;;20.55;29.59;100520.80;2086112;83;30793;-59
2022/05/01 14:34:55;;;;;;;9.80;5.42;;;;;;;20.52;29.27;100521.09;2106075;84;37386;-59
2022/05/01 14:38:04;;;;;;;11.90;5.42;;;;;;;20.45;29.48;100520.75;2108111;84;29310;-58
2022/05/01 14:41:08;;;;;;;8.63;5.25;;;;;;;20.48;29.25;100515.03;2108424;84;31925;-59
2022/05/01 14:44:12;;;;;;;6.45;4.62;;;;;;;20.47;29.02;100515.55;2108401;84;33392;-59
2022/05/01 14:47:25;;;;;;;7.53;4.95;;;;;;;20.51;28.99;100514.77;2108467;84;29711;-58
2022/05/01 14:50:29;;;;;;;6.80;5.28;;;;;;;20.56;29.20;100514.36;2103714;84;27731;-59
2022/05/01 14:53:33;;;;;;;8.70;5.00;;;;;;;20.60;29.21;100503.56;2108489;84;31946;-58
2022/05/01 14:56:37;;;;;;;6.03;4.87;;;;;;;20.64;28.81;100509.95;2108269;84;31168;-58